sensor_id;sensor_type;location;lat;lon;timestamp;P1;durP1;ratioP1;P2;durP2;ratioP2
3311;SDS011;1668;49.648;8.570;2022-09-06T00:01:55;5.17;;;2.40;;
3311;SDS011;1668;49.648;8.570;2022-09-06T00:04:22;3.63;;;2.33;;
3311;SDS011;1668;49.648;8.570;2022-09-06T00:06:49;3.77;;;2.40;;
3311;SDS011;1668;49.648;8.570;2022-09-06T00:09:16;3.73;;;2.70;;
3311;SDS011;1668;49.648;8.570;2022-09-06T00:11:43;3.80;;;2.67;;
3311;SDS011;1668;49.648;8.570;2022-09-06T00:14:10;2.70;;;2.20;;
3311;SDS011;1668;49.648;8.570;2022-09-06T00:16:37;4.77;;;2.20;;
3311;SDS011;1668;49.648;8.570;2022-09-06T00:19:06;3.03;;;2.07;;
3311;SDS011;1668;49.648;8.570;2022-09-06T00:21:32;4.43;;;2.67;;
3311;SDS011;1668;49.648;8.570;2022-09-06T00:24:00;3.50;;;2.30;;
3311;SDS011;1668;49.648;8.570;2022-09-06T00:26:28;7.13;;;2.70;;
3311;SDS011;1668;49.648;8.570;2022-09-06T00:28:55;4.63;;;2.63;;
3311;SDS011;1668;49.648;8.570;2022-09-06T00:31:22;3.73;;;2.80;;
3311;SDS011;1668;49.648;8.570;2022-09-06T00:33:50;4.27;;;2.40;;
3311;SDS011;1668;49.648;8.570;2022-09-06T00:36:19;4.33;;;2.53;;
3311;SDS011;1668;49.648;8.570;2022-09-06T00:38:47;3.40;;;2.53;;
3311;SDS011;1668;49.648;8.570;2022-09-06T00:41:14;3.90;;;2.50;;
3311;SDS011;1668;49.648;8.570;2022-09-06T00:43:42;2.87;;;2.20;;
3311;SDS011;1668;49.648;8.570;2022-09-06T00:46:11;4.27;;;2.40;;
3311;SDS011;1668;49.648;8.570;2022-09-06T00:48:40;3.60;;;2.50;;
3311;SDS011;1668;49.648;8.570;2022-09-06T00:51:09;3.57;;;2.53;;
3311;SDS011;1668;49.648;8.570;2022-09-06T00:53:39;3.50;;;2.57;;
3311;SDS011;1668;49.648;8.570;2022-09-06T00:56:06;9.90;;;2.60;;
3311;SDS011;1668;49.648;8.570;2022-09-06T00:58:33;3.60;;;2.47;;
3311;SDS011;1668;49.648;8.570;2022-09-06T01:01:01;6.03;;;2.53;;
3311;SDS011;1668;49.648;8.570;2022-09-06T01:03:29;3.97;;;2.50;;
3311;SDS011;1668;49.648;8.570;2022-09-06T01:05:58;3.90;;;2.30;;
3311;SDS011;1668;49.648;8.570;2022-09-06T01:08:34;3.70;;;2.40;;
3311;SDS011;1668;49.648;8.570;2022-09-06T01:11:18;5.13;;;2.70;;
3311;SDS011;1668;49.648;8.570;2022-09-06T01:13:55;3.73;;;2.57;;
3311;SDS011;1668;49.648;8.570;2022-09-06T01:16:33;3.57;;;2.60;;
3311;SDS011;1668;49.648;8.570;2022-09-06T01:19:21;4.03;;;2.47;;
3311;SDS011;1668;49.648;8.570;2022-09-06T01:22:07;4.20;;;2.30;;
3311;SDS011;1668;49.648;8.570;2022-09-06T01:24:51;2.90;;;2.50;;
3311;SDS011;1668;49.648;8.570;2022-09-06T01:27:43;5.80;;;2.73;;
3311;SDS011;1668;49.648;8.570;2022-09-06T01:30:28;2.93;;;2.50;;
3311;SDS011;1668;49.648;8.570;2022-09-06T01:33:05;3.97;;;2.70;;
3311;SDS011;1668;49.648;8.570;2022-09-06T01:35:40;2.83;;;2.30;;
3311;SDS011;1668;49.648;8.570;2022-09-06T01:38:12;4.03;;;2.43;;
3311;SDS011;1668;49.648;8.570;2022-09-06T01:40:40;3.93;;;2.43;;
3311;SDS011;1668;49.648;8.570;2022-09-06T01:43:09;5.40;;;2.60;;
3311;SDS011;1668;49.648;8.570;2022-09-06T01:45:40;7.60;;;2.90;;
3311;SDS011;1668;49.648;8.570;2022-09-06T01:48:15;3.77;;;2.97;;
3311;SDS011;1668;49.648;8.570;2022-09-06T01:50:52;3.93;;;3.10;;
3311;SDS011;1668;49.648;8.570;2022-09-06T01:53:45;5.40;;;3.40;;
3311;SDS011;1668;49.648;8.570;2022-09-06T01:56:29;5.50;;;3.00;;
3311;SDS011;1668;49.648;8.570;2022-09-06T01:59:21;6.00;;;2.77;;
3311;SDS011;1668;49.648;8.570;2022-09-06T02:02:02;6.27;;;2.87;;
3311;SDS011;1668;49.648;8.570;2022-09-06T02:04:35;4.33;;;2.53;;
3311;SDS011;1668;49.648;8.570;2022-09-06T02:07:11;5.37;;;2.17;;
3311;SDS011;1668;49.648;8.570;2022-09-06T02:09:42;5.10;;;1.90;;
3311;SDS011;1668;49.648;8.570;2022-09-06T02:12:12;4.13;;;2.47;;
3311;SDS011;1668;49.648;8.570;2022-09-06T02:14:44;4.33;;;2.33;;
3311;SDS011;1668;49.648;8.570;2022-09-06T02:17:16;4.47;;;2.40;;
3311;SDS011;1668;49.648;8.570;2022-09-06T02:19:48;5.30;;;2.30;;
3311;SDS011;1668;49.648;8.570;2022-09-06T02:22:20;6.97;;;2.60;;
3311;SDS011;1668;49.648;8.570;2022-09-06T02:24:50;4.53;;;3.03;;
3311;SDS011;1668;49.648;8.570;2022-09-06T02:27:18;3.53;;;2.53;;
3311;SDS011;1668;49.648;8.570;2022-09-06T02:29:47;3.90;;;2.50;;
3311;SDS011;1668;49.648;8.570;2022-09-06T02:32:15;4.87;;;2.67;;
3311;SDS011;1668;49.648;8.570;2022-09-06T02:34:45;4.77;;;2.80;;
3311;SDS011;1668;49.648;8.570;2022-09-06T02:37:12;3.93;;;2.77;;
3311;SDS011;1668;49.648;8.570;2022-09-06T02:39:41;5.43;;;2.80;;
3311;SDS011;1668;49.648;8.570;2022-09-06T02:42:08;5.63;;;3.07;;
3311;SDS011;1668;49.648;8.570;2022-09-06T02:44:37;4.80;;;2.43;;
3311;SDS011;1668;49.648;8.570;2022-09-06T02:47:06;3.00;;;2.37;;
3311;SDS011;1668;49.648;8.570;2022-09-06T02:49:33;3.10;;;2.40;;
3311;SDS011;1668;49.648;8.570;2022-09-06T02:52:00;3.13;;;2.53;;
3311;SDS011;1668;49.648;8.570;2022-09-06T02:54:27;3.70;;;2.83;;
3311;SDS011;1668;49.648;8.570;2022-09-06T02:56:55;4.70;;;2.87;;
3311;SDS011;1668;49.648;8.570;2022-09-06T02:59:22;3.23;;;2.43;;
3311;SDS011;1668;49.648;8.570;2022-09-06T03:01:49;3.30;;;2.57;;
3311;SDS011;1668;49.648;8.570;2022-09-06T03:04:17;5.70;;;2.37;;
3311;SDS011;1668;49.648;8.570;2022-09-06T03:06:44;4.43;;;2.23;;
3311;SDS011;1668;49.648;8.570;2022-09-06T03:09:11;2.70;;;2.10;;
3311;SDS011;1668;49.648;8.570;2022-09-06T03:11:37;7.57;;;2.50;;
3311;SDS011;1668;49.648;8.570;2022-09-06T03:14:04;2.90;;;2.57;;
3311;SDS011;1668;49.648;8.570;2022-09-06T03:16:31;4.63;;;2.60;;
3311;SDS011;1668;49.648;8.570;2022-09-06T03:18:58;5.70;;;2.47;;
3311;SDS011;1668;49.648;8.570;2022-09-06T03:21:27;3.83;;;2.67;;
3311;SDS011;1668;49.648;8.570;2022-09-06T03:23:53;4.03;;;2.40;;
3311;SDS011;1668;49.648;8.570;2022-09-06T03:26:20;4.33;;;2.57;;
3311;SDS011;1668;49.648;8.570;2022-09-06T03:28:47;2.87;;;2.37;;
3311;SDS011;1668;49.648;8.570;2022-09-06T03:31:14;5.10;;;2.90;;
3311;SDS011;1668;49.648;8.570;2022-09-06T03:33:41;5.90;;;2.97;;
3311;SDS011;1668;49.648;8.570;2022-09-06T03:36:08;3.03;;;2.70;;
3311;SDS011;1668;49.648;8.570;2022-09-06T03:38:36;4.87;;;2.60;;
3311;SDS011;1668;49.648;8.570;2022-09-06T03:41:04;4.10;;;2.83;;
3311;SDS011;1668;49.648;8.570;2022-09-06T03:43:30;4.63;;;2.90;;
3311;SDS011;1668;49.648;8.570;2022-09-06T03:45:57;4.50;;;2.93;;
3311;SDS011;1668;49.648;8.570;2022-09-06T03:48:25;4.33;;;3.30;;
3311;SDS011;1668;49.648;8.570;2022-09-06T03:50:54;4.13;;;3.17;;
3311;SDS011;1668;49.648;8.570;2022-09-06T03:53:23;5.27;;;3.30;;
3311;SDS011;1668;49.648;8.570;2022-09-06T03:55:53;4.70;;;2.90;;
3311;SDS011;1668;49.648;8.570;2022-09-06T03:58:22;3.93;;;2.90;;
3311;SDS011;1668;49.648;8.570;2022-09-06T04:00:58;6.47;;;3.53;;
3311;SDS011;1668;49.648;8.570;2022-09-06T04:03:25;5.30;;;3.40;;
3311;SDS011;1668;49.648;8.570;2022-09-06T04:05:52;3.90;;;2.70;;
3311;SDS011;1668;49.648;8.570;2022-09-06T04:08:19;3.30;;;2.80;;
3311;SDS011;1668;49.648;8.570;2022-09-06T04:10:48;3.80;;;3.33;;
3311;SDS011;1668;49.648;8.570;2022-09-06T04:13:17;4.33;;;3.20;;
3311;SDS011;1668;49.648;8.570;2022-09-06T04:15:44;3.97;;;2.80;;
3311;SDS011;1668;49.648;8.570;2022-09-06T04:18:11;4.07;;;3.20;;
3311;SDS011;1668;49.648;8.570;2022-09-06T04:20:38;5.97;;;3.70;;
3311;SDS011;1668;49.648;8.570;2022-09-06T04:23:05;4.60;;;3.30;;
3311;SDS011;1668;49.648;8.570;2022-09-06T04:25:32;8.80;;;3.60;;
3311;SDS011;1668;49.648;8.570;2022-09-06T04:28:00;4.30;;;3.37;;
3311;SDS011;1668;49.648;8.570;2022-09-06T04:30:28;6.17;;;3.93;;
3311;SDS011;1668;49.648;8.570;2022-09-06T04:32:55;5.20;;;3.93;;
3311;SDS011;1668;49.648;8.570;2022-09-06T04:35:22;11.70;;;3.70;;
3311;SDS011;1668;49.648;8.570;2022-09-06T04:37:49;5.40;;;3.80;;
3311;SDS011;1668;49.648;8.570;2022-09-06T04:40:16;5.70;;;3.50;;
3311;SDS011;1668;49.648;8.570;2022-09-06T04:42:43;4.53;;;4.03;;
3311;SDS011;1668;49.648;8.570;2022-09-06T04:45:10;4.63;;;3.17;;
3311;SDS011;1668;49.648;8.570;2022-09-06T04:47:38;6.17;;;3.70;;
3311;SDS011;1668;49.648;8.570;2022-09-06T04:50:05;5.10;;;3.60;;
3311;SDS011;1668;49.648;8.570;2022-09-06T04:52:33;4.73;;;3.40;;
3311;SDS011;1668;49.648;8.570;2022-09-06T04:55:00;5.80;;;3.20;;
3311;SDS011;1668;49.648;8.570;2022-09-06T04:57:26;6.27;;;3.43;;
3311;SDS011;1668;49.648;8.570;2022-09-06T04:59:53;5.10;;;3.30;;
3311;SDS011;1668;49.648;8.570;2022-09-06T05:02:20;5.43;;;3.43;;
3311;SDS011;1668;49.648;8.570;2022-09-06T05:04:48;5.70;;;3.50;;
3311;SDS011;1668;49.648;8.570;2022-09-06T05:07:16;7.93;;;3.37;;
3311;SDS011;1668;49.648;8.570;2022-09-06T05:09:43;4.60;;;3.33;;
3311;SDS011;1668;49.648;8.570;2022-09-06T05:12:10;5.37;;;3.73;;
3311;SDS011;1668;49.648;8.570;2022-09-06T05:14:37;6.33;;;3.80;;
3311;SDS011;1668;49.648;8.570;2022-09-06T05:17:04;5.17;;;3.60;;
3311;SDS011;1668;49.648;8.570;2022-09-06T05:19:30;5.80;;;3.90;;
3311;SDS011;1668;49.648;8.570;2022-09-06T05:21:59;7.10;;;3.67;;
3311;SDS011;1668;49.648;8.570;2022-09-06T05:24:26;5.53;;;3.20;;
3311;SDS011;1668;49.648;8.570;2022-09-06T05:26:52;5.20;;;3.20;;
3311;SDS011;1668;49.648;8.570;2022-09-06T05:29:19;5.83;;;3.50;;
3311;SDS011;1668;49.648;8.570;2022-09-06T05:31:46;5.93;;;3.23;;
3311;SDS011;1668;49.648;8.570;2022-09-06T05:34:13;7.50;;;3.90;;
3311;SDS011;1668;49.648;8.570;2022-09-06T05:36:40;5.50;;;3.50;;
3311;SDS011;1668;49.648;8.570;2022-09-06T05:39:08;6.33;;;3.50;;
3311;SDS011;1668;49.648;8.570;2022-09-06T05:41:35;8.20;;;3.90;;
3311;SDS011;1668;49.648;8.570;2022-09-06T05:44:02;5.80;;;3.90;;
3311;SDS011;1668;49.648;8.570;2022-09-06T05:46:29;4.73;;;3.63;;
3311;SDS011;1668;49.648;8.570;2022-09-06T05:48:56;9.10;;;3.60;;
3311;SDS011;1668;49.648;8.570;2022-09-06T05:51:25;7.83;;;4.33;;
3311;SDS011;1668;49.648;8.570;2022-09-06T05:53:52;5.77;;;3.40;;
3311;SDS011;1668;49.648;8.570;2022-09-06T05:56:21;8.70;;;3.43;;
3311;SDS011;1668;49.648;8.570;2022-09-06T05:58:48;4.00;;;3.23;;
3311;SDS011;1668;49.648;8.570;2022-09-06T06:01:16;5.70;;;3.87;;
3311;SDS011;1668;49.648;8.570;2022-09-06T06:03:48;4.50;;;3.70;;
3311;SDS011;1668;49.648;8.570;2022-09-06T06:06:16;6.40;;;3.50;;
3311;SDS011;1668;49.648;8.570;2022-09-06T06:08:43;4.90;;;3.70;;
3311;SDS011;1668;49.648;8.570;2022-09-06T06:11:11;4.47;;;3.80;;
3311;SDS011;1668;49.648;8.570;2022-09-06T06:13:39;10.40;;;4.03;;
3311;SDS011;1668;49.648;8.570;2022-09-06T06:16:08;5.43;;;3.93;;
3311;SDS011;1668;49.648;8.570;2022-09-06T06:18:36;7.10;;;4.27;;
3311;SDS011;1668;49.648;8.570;2022-09-06T06:21:10;8.93;;;3.93;;
3311;SDS011;1668;49.648;8.570;2022-09-06T06:23:38;4.47;;;3.60;;
3311;SDS011;1668;49.648;8.570;2022-09-06T06:26:06;4.37;;;3.60;;
3311;SDS011;1668;49.648;8.570;2022-09-06T06:28:34;7.37;;;4.40;;
3311;SDS011;1668;49.648;8.570;2022-09-06T06:31:03;6.13;;;4.67;;
3311;SDS011;1668;49.648;8.570;2022-09-06T06:33:31;7.50;;;4.40;;
3311;SDS011;1668;49.648;8.570;2022-09-06T06:36:00;9.50;;;4.53;;
3311;SDS011;1668;49.648;8.570;2022-09-06T06:38:30;6.70;;;4.60;;
3311;SDS011;1668;49.648;8.570;2022-09-06T06:40:57;8.00;;;4.93;;
3311;SDS011;1668;49.648;8.570;2022-09-06T06:43:25;8.30;;;4.80;;
3311;SDS011;1668;49.648;8.570;2022-09-06T06:45:52;8.97;;;5.23;;
3311;SDS011;1668;49.648;8.570;2022-09-06T06:48:20;5.33;;;4.33;;
3311;SDS011;1668;49.648;8.570;2022-09-06T06:50:47;10.83;;;4.60;;
3311;SDS011;1668;49.648;8.570;2022-09-06T06:53:14;10.30;;;5.17;;
3311;SDS011;1668;49.648;8.570;2022-09-06T06:55:44;9.00;;;5.60;;
3311;SDS011;1668;49.648;8.570;2022-09-06T06:58:12;10.00;;;5.27;;
3311;SDS011;1668;49.648;8.570;2022-09-06T07:00:40;7.40;;;5.23;;
3311;SDS011;1668;49.648;8.570;2022-09-06T07:03:07;7.80;;;5.10;;
3311;SDS011;1668;49.648;8.570;2022-09-06T07:05:35;10.23;;;5.33;;
3311;SDS011;1668;49.648;8.570;2022-09-06T07:08:03;6.63;;;5.13;;
3311;SDS011;1668;49.648;8.570;2022-09-06T07:10:31;7.33;;;4.90;;
3311;SDS011;1668;49.648;8.570;2022-09-06T07:12:58;7.00;;;4.67;;
3311;SDS011;1668;49.648;8.570;2022-09-06T07:15:25;6.13;;;4.47;;
3311;SDS011;1668;49.648;8.570;2022-09-06T07:17:53;7.40;;;4.50;;
3311;SDS011;1668;49.648;8.570;2022-09-06T07:20:20;6.23;;;4.73;;
3311;SDS011;1668;49.648;8.570;2022-09-06T07:22:57;7.03;;;4.20;;
3311;SDS011;1668;49.648;8.570;2022-09-06T07:25:25;9.50;;;4.20;;
3311;SDS011;1668;49.648;8.570;2022-09-06T07:27:56;8.77;;;4.83;;
3311;SDS011;1668;49.648;8.570;2022-09-06T07:30:26;7.03;;;4.53;;
3311;SDS011;1668;49.648;8.570;2022-09-06T07:32:54;9.73;;;5.20;;
3311;SDS011;1668;49.648;8.570;2022-09-06T07:35:21;5.43;;;4.70;;
3311;SDS011;1668;49.648;8.570;2022-09-06T07:37:52;10.43;;;5.40;;
3311;SDS011;1668;49.648;8.570;2022-09-06T07:40:21;7.03;;;4.23;;
3311;SDS011;1668;49.648;8.570;2022-09-06T07:42:48;5.70;;;4.53;;
3311;SDS011;1668;49.648;8.570;2022-09-06T07:45:15;6.70;;;4.50;;
3311;SDS011;1668;49.648;8.570;2022-09-06T07:47:42;6.63;;;4.33;;
3311;SDS011;1668;49.648;8.570;2022-09-06T07:50:09;6.70;;;4.83;;
3311;SDS011;1668;49.648;8.570;2022-09-06T07:52:36;6.23;;;4.80;;
3311;SDS011;1668;49.648;8.570;2022-09-06T07:55:03;6.13;;;4.97;;
3311;SDS011;1668;49.648;8.570;2022-09-06T07:57:32;6.87;;;4.70;;
3311;SDS011;1668;49.648;8.570;2022-09-06T07:59:59;6.33;;;4.90;;
3311;SDS011;1668;49.648;8.570;2022-09-06T08:02:26;7.27;;;4.43;;
3311;SDS011;1668;49.648;8.570;2022-09-06T08:04:53;6.17;;;4.60;;
3311;SDS011;1668;49.648;8.570;2022-09-06T08:07:21;5.90;;;4.43;;
3311;SDS011;1668;49.648;8.570;2022-09-06T08:09:49;8.43;;;4.80;;
3311;SDS011;1668;49.648;8.570;2022-09-06T08:12:16;6.40;;;4.83;;
3311;SDS011;1668;49.648;8.570;2022-09-06T08:14:44;8.80;;;5.00;;
3311;SDS011;1668;49.648;8.570;2022-09-06T08:17:11;8.93;;;4.90;;
3311;SDS011;1668;49.648;8.570;2022-09-06T08:19:38;11.67;;;4.20;;
3311;SDS011;1668;49.648;8.570;2022-09-06T08:22:05;5.40;;;4.20;;
3311;SDS011;1668;49.648;8.570;2022-09-06T08:24:32;7.07;;;3.90;;
3311;SDS011;1668;49.648;8.570;2022-09-06T08:26:59;7.57;;;3.97;;
3311;SDS011;1668;49.648;8.570;2022-09-06T08:29:26;5.50;;;3.70;;
3311;SDS011;1668;49.648;8.570;2022-09-06T08:31:55;4.50;;;3.90;;
3311;SDS011;1668;49.648;8.570;2022-09-06T08:34:21;5.60;;;4.30;;
3311;SDS011;1668;49.648;8.570;2022-09-06T08:36:48;4.57;;;3.70;;
3311;SDS011;1668;49.648;8.570;2022-09-06T08:39:15;5.27;;;3.37;;
3311;SDS011;1668;49.648;8.570;2022-09-06T08:41:47;5.87;;;3.47;;
3311;SDS011;1668;49.648;8.570;2022-09-06T08:44:17;5.90;;;3.63;;
3311;SDS011;1668;49.648;8.570;2022-09-06T08:46:49;4.97;;;2.80;;
3311;SDS011;1668;49.648;8.570;2022-09-06T08:49:22;4.77;;;3.13;;
3311;SDS011;1668;49.648;8.570;2022-09-06T08:51:57;6.40;;;3.43;;
3311;SDS011;1668;49.648;8.570;2022-09-06T08:54:42;3.97;;;3.37;;
3311;SDS011;1668;49.648;8.570;2022-09-06T08:57:21;8.30;;;3.57;;
3311;SDS011;1668;49.648;8.570;2022-09-06T09:00:00;4.23;;;3.30;;
3311;SDS011;1668;49.648;8.570;2022-09-06T09:02:34;6.77;;;3.80;;
3311;SDS011;1668;49.648;8.570;2022-09-06T09:05:12;4.10;;;3.40;;
3311;SDS011;1668;49.648;8.570;2022-09-06T09:07:49;4.73;;;3.50;;
3311;SDS011;1668;49.648;8.570;2022-09-06T09:10:22;4.80;;;3.27;;
3311;SDS011;1668;49.648;8.570;2022-09-06T09:12:52;8.27;;;3.37;;
3311;SDS011;1668;49.648;8.570;2022-09-06T09:15:19;5.07;;;2.73;;
3311;SDS011;1668;49.648;8.570;2022-09-06T09:17:47;5.57;;;3.10;;
3311;SDS011;1668;49.648;8.570;2022-09-06T09:20:18;5.40;;;3.30;;
3311;SDS011;1668;49.648;8.570;2022-09-06T09:22:45;5.47;;;3.17;;
3311;SDS011;1668;49.648;8.570;2022-09-06T09:25:15;3.87;;;3.00;;
3311;SDS011;1668;49.648;8.570;2022-09-06T09:27:45;3.87;;;3.30;;
3311;SDS011;1668;49.648;8.570;2022-09-06T09:30:14;3.90;;;3.10;;
3311;SDS011;1668;49.648;8.570;2022-09-06T09:32:42;4.97;;;3.33;;
3311;SDS011;1668;49.648;8.570;2022-09-06T09:35:19;4.47;;;3.43;;
3311;SDS011;1668;49.648;8.570;2022-09-06T09:37:54;3.27;;;2.97;;
3311;SDS011;1668;49.648;8.570;2022-09-06T09:40:28;5.60;;;3.00;;
3311;SDS011;1668;49.648;8.570;2022-09-06T09:43:09;4.73;;;3.13;;
3311;SDS011;1668;49.648;8.570;2022-09-06T09:45:39;3.93;;;3.20;;
3311;SDS011;1668;49.648;8.570;2022-09-06T09:50:55;4.20;;;3.27;;
3311;SDS011;1668;49.648;8.570;2022-09-06T09:53:44;4.83;;;3.50;;
3311;SDS011;1668;49.648;8.570;2022-09-06T09:56:15;5.27;;;3.10;;
3311;SDS011;1668;49.648;8.570;2022-09-06T09:58:42;5.27;;;3.30;;
3311;SDS011;1668;49.648;8.570;2022-09-06T10:01:10;8.73;;;3.77;;
3311;SDS011;1668;49.648;8.570;2022-09-06T10:03:43;8.23;;;3.57;;
3311;SDS011;1668;49.648;8.570;2022-09-06T10:06:12;3.83;;;3.23;;
3311;SDS011;1668;49.648;8.570;2022-09-06T10:08:40;5.57;;;3.40;;
3311;SDS011;1668;49.648;8.570;2022-09-06T10:11:12;3.90;;;2.97;;
3311;SDS011;1668;49.648;8.570;2022-09-06T10:13:39;6.70;;;3.10;;
3311;SDS011;1668;49.648;8.570;2022-09-06T10:16:07;4.23;;;3.07;;
3311;SDS011;1668;49.648;8.570;2022-09-06T10:18:35;3.90;;;2.93;;
3311;SDS011;1668;49.648;8.570;2022-09-06T10:21:04;5.70;;;2.97;;
3311;SDS011;1668;49.648;8.570;2022-09-06T10:23:35;4.30;;;3.30;;
3311;SDS011;1668;49.648;8.570;2022-09-06T10:26:13;5.60;;;3.30;;
3311;SDS011;1668;49.648;8.570;2022-09-06T10:28:44;6.63;;;3.17;;
3311;SDS011;1668;49.648;8.570;2022-09-06T10:34:38;3.87;;;2.60;;
3311;SDS011;1668;49.648;8.570;2022-09-06T10:37:42;6.63;;;2.80;;
3311;SDS011;1668;49.648;8.570;2022-09-06T10:42:59;5.93;;;3.00;;
3311;SDS011;1668;49.648;8.570;2022-09-06T10:45:35;6.00;;;2.97;;
3311;SDS011;1668;49.648;8.570;2022-09-06T10:48:12;5.63;;;3.40;;
3311;SDS011;1668;49.648;8.570;2022-09-06T10:50:47;6.50;;;2.73;;
3311;SDS011;1668;49.648;8.570;2022-09-06T10:53:25;3.93;;;2.47;;
3311;SDS011;1668;49.648;8.570;2022-09-06T10:56:05;4.43;;;3.03;;
3311;SDS011;1668;49.648;8.570;2022-09-06T10:58:38;4.43;;;3.07;;
3311;SDS011;1668;49.648;8.570;2022-09-06T11:01:12;7.93;;;3.03;;
3311;SDS011;1668;49.648;8.570;2022-09-06T11:03:47;6.93;;;2.93;;
3311;SDS011;1668;49.648;8.570;2022-09-06T11:06:16;3.10;;;2.80;;
3311;SDS011;1668;49.648;8.570;2022-09-06T11:08:48;4.57;;;2.50;;
3311;SDS011;1668;49.648;8.570;2022-09-06T11:11:23;4.17;;;2.20;;
3311;SDS011;1668;49.648;8.570;2022-09-06T11:13:53;4.83;;;2.70;;
3311;SDS011;1668;49.648;8.570;2022-09-06T11:16:21;4.37;;;2.73;;
3311;SDS011;1668;49.648;8.570;2022-09-06T11:18:54;3.30;;;2.63;;
3311;SDS011;1668;49.648;8.570;2022-09-06T11:21:39;4.00;;;2.60;;
3311;SDS011;1668;49.648;8.570;2022-09-06T11:24:21;6.47;;;2.60;;
3311;SDS011;1668;49.648;8.570;2022-09-06T11:26:59;3.47;;;2.67;;
3311;SDS011;1668;49.648;8.570;2022-09-06T11:29:30;4.10;;;2.50;;
3311;SDS011;1668;49.648;8.570;2022-09-06T11:31:59;3.20;;;2.57;;
3311;SDS011;1668;49.648;8.570;2022-09-06T11:34:28;3.60;;;2.50;;
3311;SDS011;1668;49.648;8.570;2022-09-06T11:36:58;5.17;;;2.70;;
3311;SDS011;1668;49.648;8.570;2022-09-06T11:39:27;3.40;;;2.67;;
3311;SDS011;1668;49.648;8.570;2022-09-06T11:41:57;3.73;;;2.90;;
3311;SDS011;1668;49.648;8.570;2022-09-06T11:47:38;2.90;;;2.60;;
3311;SDS011;1668;49.648;8.570;2022-09-06T11:50:25;2.83;;;2.37;;
3311;SDS011;1668;49.648;8.570;2022-09-06T11:53:25;3.30;;;2.60;;
3311;SDS011;1668;49.648;8.570;2022-09-06T11:56:08;2.60;;;2.20;;
3311;SDS011;1668;49.648;8.570;2022-09-06T11:58:44;3.20;;;2.13;;
3311;SDS011;1668;49.648;8.570;2022-09-06T12:01:33;3.03;;;2.13;;
3311;SDS011;1668;49.648;8.570;2022-09-06T12:04:11;4.90;;;2.03;;
3311;SDS011;1668;49.648;8.570;2022-09-06T12:06:39;2.33;;;2.00;;
3311;SDS011;1668;49.648;8.570;2022-09-06T12:11:53;2.50;;;1.90;;
3311;SDS011;1668;49.648;8.570;2022-09-06T12:14:30;3.63;;;2.00;;
3311;SDS011;1668;49.648;8.570;2022-09-06T12:19:50;3.53;;;2.60;;
3311;SDS011;1668;49.648;8.570;2022-09-06T12:28:29;5.20;;;2.10;;
3311;SDS011;1668;49.648;8.570;2022-09-06T12:31:26;4.20;;;2.27;;
3311;SDS011;1668;49.648;8.570;2022-09-06T12:33:56;2.80;;;2.00;;
3311;SDS011;1668;49.648;8.570;2022-09-06T12:36:24;5.17;;;2.20;;
3311;SDS011;1668;49.648;8.570;2022-09-06T12:38:55;3.80;;;2.03;;
3311;SDS011;1668;49.648;8.570;2022-09-06T12:41:24;3.53;;;2.20;;
3311;SDS011;1668;49.648;8.570;2022-09-06T12:43:53;3.70;;;2.20;;
3311;SDS011;1668;49.648;8.570;2022-09-06T12:46:22;3.03;;;2.00;;
3311;SDS011;1668;49.648;8.570;2022-09-06T12:49:01;5.00;;;1.90;;
3311;SDS011;1668;49.648;8.570;2022-09-06T12:51:29;3.00;;;2.23;;
3311;SDS011;1668;49.648;8.570;2022-09-06T12:53:57;5.73;;;2.07;;
3311;SDS011;1668;49.648;8.570;2022-09-06T12:56:26;3.67;;;2.17;;
3311;SDS011;1668;49.648;8.570;2022-09-06T12:59:08;3.20;;;1.60;;
3311;SDS011;1668;49.648;8.570;2022-09-06T13:01:38;3.50;;;2.40;;
3311;SDS011;1668;49.648;8.570;2022-09-06T13:04:10;4.33;;;2.10;;
3311;SDS011;1668;49.648;8.570;2022-09-06T13:06:43;3.33;;;2.10;;
3311;SDS011;1668;49.648;8.570;2022-09-06T13:09:12;2.77;;;2.30;;
3311;SDS011;1668;49.648;8.570;2022-09-06T13:11:42;3.67;;;2.47;;
3311;SDS011;1668;49.648;8.570;2022-09-06T13:14:10;5.30;;;3.30;;
3311;SDS011;1668;49.648;8.570;2022-09-06T13:16:41;2.70;;;2.30;;
3311;SDS011;1668;49.648;8.570;2022-09-06T13:19:12;3.10;;;2.27;;
3311;SDS011;1668;49.648;8.570;2022-09-06T13:21:41;5.00;;;3.00;;
3311;SDS011;1668;49.648;8.570;2022-09-06T13:24:17;5.97;;;2.90;;
3311;SDS011;1668;49.648;8.570;2022-09-06T13:26:46;3.97;;;2.53;;
3311;SDS011;1668;49.648;8.570;2022-09-06T13:29:23;2.90;;;2.30;;
3311;SDS011;1668;49.648;8.570;2022-09-06T13:31:54;4.37;;;2.60;;
3311;SDS011;1668;49.648;8.570;2022-09-06T13:34:24;7.10;;;2.80;;
3311;SDS011;1668;49.648;8.570;2022-09-06T13:36:53;4.03;;;2.83;;
3311;SDS011;1668;49.648;8.570;2022-09-06T13:39:27;6.20;;;3.20;;
3311;SDS011;1668;49.648;8.570;2022-09-06T13:41:58;7.13;;;2.90;;
3311;SDS011;1668;49.648;8.570;2022-09-06T13:44:27;4.40;;;2.40;;
3311;SDS011;1668;49.648;8.570;2022-09-06T13:46:55;3.50;;;2.73;;
3311;SDS011;1668;49.648;8.570;2022-09-06T13:49:23;4.57;;;3.00;;
3311;SDS011;1668;49.648;8.570;2022-09-06T13:51:51;3.00;;;2.47;;
3311;SDS011;1668;49.648;8.570;2022-09-06T13:54:20;5.93;;;3.03;;
3311;SDS011;1668;49.648;8.570;2022-09-06T13:56:47;3.83;;;2.30;;
3311;SDS011;1668;49.648;8.570;2022-09-06T13:59:15;4.60;;;3.00;;
3311;SDS011;1668;49.648;8.570;2022-09-06T14:01:43;4.40;;;3.70;;
3311;SDS011;1668;49.648;8.570;2022-09-06T14:04:12;3.70;;;2.70;;
3311;SDS011;1668;49.648;8.570;2022-09-06T14:06:41;5.20;;;2.70;;
3311;SDS011;1668;49.648;8.570;2022-09-06T14:09:09;4.80;;;2.63;;
3311;SDS011;1668;49.648;8.570;2022-09-06T14:11:36;5.10;;;2.47;;
3311;SDS011;1668;49.648;8.570;2022-09-06T14:14:03;3.80;;;2.57;;
3311;SDS011;1668;49.648;8.570;2022-09-06T14:16:31;5.43;;;2.90;;
3311;SDS011;1668;49.648;8.570;2022-09-06T14:18:58;6.27;;;2.53;;
3311;SDS011;1668;49.648;8.570;2022-09-06T14:21:25;5.20;;;2.30;;
3311;SDS011;1668;49.648;8.570;2022-09-06T14:23:54;4.77;;;2.30;;
3311;SDS011;1668;49.648;8.570;2022-09-06T14:26:22;4.53;;;2.60;;
3311;SDS011;1668;49.648;8.570;2022-09-06T14:28:49;3.60;;;2.10;;
3311;SDS011;1668;49.648;8.570;2022-09-06T14:31:17;5.30;;;2.57;;
3311;SDS011;1668;49.648;8.570;2022-09-06T14:33:45;3.63;;;2.07;;
3311;SDS011;1668;49.648;8.570;2022-09-06T14:36:12;2.83;;;1.70;;
3311;SDS011;1668;49.648;8.570;2022-09-06T14:38:41;6.13;;;2.20;;
3311;SDS011;1668;49.648;8.570;2022-09-06T14:41:10;5.57;;;2.47;;
3311;SDS011;1668;49.648;8.570;2022-09-06T14:43:39;2.40;;;1.73;;
3311;SDS011;1668;49.648;8.570;2022-09-06T14:46:07;2.60;;;1.70;;
3311;SDS011;1668;49.648;8.570;2022-09-06T14:48:36;6.63;;;1.93;;
3311;SDS011;1668;49.648;8.570;2022-09-06T14:51:06;4.53;;;1.90;;
3311;SDS011;1668;49.648;8.570;2022-09-06T14:53:36;4.70;;;2.30;;
3311;SDS011;1668;49.648;8.570;2022-09-06T14:56:04;2.43;;;1.70;;
3311;SDS011;1668;49.648;8.570;2022-09-06T14:58:34;10.23;;;2.20;;
3311;SDS011;1668;49.648;8.570;2022-09-06T15:01:09;4.43;;;1.63;;
3311;SDS011;1668;49.648;8.570;2022-09-06T15:03:38;3.30;;;1.67;;
3311;SDS011;1668;49.648;8.570;2022-09-06T15:06:06;3.40;;;1.57;;
3311;SDS011;1668;49.648;8.570;2022-09-06T15:08:33;2.60;;;1.70;;
3311;SDS011;1668;49.648;8.570;2022-09-06T15:11:00;3.53;;;1.60;;
3311;SDS011;1668;49.648;8.570;2022-09-06T15:13:29;17.70;;;11.47;;
3311;SDS011;1668;49.648;8.570;2022-09-06T15:15:57;9.13;;;6.50;;
3311;SDS011;1668;49.648;8.570;2022-09-06T15:18:24;6.60;;;2.80;;
3311;SDS011;1668;49.648;8.570;2022-09-06T15:20:51;3.30;;;1.70;;
3311;SDS011;1668;49.648;8.570;2022-09-06T15:23:18;4.80;;;2.00;;
3311;SDS011;1668;49.648;8.570;2022-09-06T15:25:46;2.70;;;1.80;;
3311;SDS011;1668;49.648;8.570;2022-09-06T15:28:14;4.37;;;1.40;;
3311;SDS011;1668;49.648;8.570;2022-09-06T15:30:43;3.00;;;1.70;;
3311;SDS011;1668;49.648;8.570;2022-09-06T15:33:11;3.90;;;1.50;;
3311;SDS011;1668;49.648;8.570;2022-09-06T15:35:39;3.47;;;2.30;;
3311;SDS011;1668;49.648;8.570;2022-09-06T15:38:07;3.60;;;1.63;;
3311;SDS011;1668;49.648;8.570;2022-09-06T15:40:34;4.83;;;1.83;;
3311;SDS011;1668;49.648;8.570;2022-09-06T15:43:01;2.73;;;1.60;;
3311;SDS011;1668;49.648;8.570;2022-09-06T15:45:28;4.30;;;1.60;;
3311;SDS011;1668;49.648;8.570;2022-09-06T15:47:55;3.57;;;1.97;;
3311;SDS011;1668;49.648;8.570;2022-09-06T15:50:23;3.90;;;2.10;;
3311;SDS011;1668;49.648;8.570;2022-09-06T15:52:50;6.10;;;2.50;;
3311;SDS011;1668;49.648;8.570;2022-09-06T15:55:17;3.90;;;1.80;;
3311;SDS011;1668;49.648;8.570;2022-09-06T15:58:02;3.47;;;2.37;;